Time;durP1;ratioP1;P1;durP2;ratioP2;P2;SDS_P1;SDS_P2;PMS_P1;PMS_P2;Temp;Humidity;BMP_temperature;BMP_pressure;BME280_temperature;BME280_humidity;BME280_pressure;Samples;Min_cycle;Max_cycle;Signal;HPM_P1;HPM_P2
2023/02/17 00:01:11;;;;;;;250.85;145.38;;;6.80;99.90;;;;;;5078263;28;20558;-76
2023/02/17 00:03:37;;;;;;;254.90;151.10;;;6.80;99.90;;;;;;5076103;28;20503;-76
2023/02/17 00:06:10;;;;;;;263.70;147.35;;;6.80;99.90;;;;;;5102159;28;20032;-76
2023/02/17 00:08:36;;;;;;;260.30;149.07;;;6.80;99.90;;;;;;5103117;28;20106;-76
2023/02/17 00:11:03;;;;;;;256.98;146.88;;;6.80;99.90;;;;;;5099853;28;20536;-76
2023/02/17 00:13:28;;;;;;;258.17;146.10;;;6.80;99.90;;;;;;5105994;28;20032;-76
2023/02/17 00:15:54;;;;;;;267.70;152.40;;;6.80;99.90;;;;;;5105949;28;20028;-76
2023/02/17 00:18:20;;;;;;;265.90;150.38;;;6.80;99.90;;;;;;5104745;28;20028;-76
2023/02/17 00:20:45;;;;;;;270.98;150.45;;;6.70;99.90;;;;;;5107341;28;20433;-76
2023/02/17 00:23:11;;;;;;;255.38;147.10;;;6.80;99.90;;;;;;5104639;28;20038;-76
2023/02/17 00:25:38;;;;;;;258.38;148.98;;;6.80;99.90;;;;;;5089665;28;20055;-76
2023/02/17 00:28:04;;;;;;;266.70;154.38;;;6.70;99.90;;;;;;5103915;28;20045;-76
2023/02/17 00:30:30;;;;;;;261.20;148.07;;;6.70;99.90;;;;;;5103866;28;20034;-76
2023/02/17 00:32:55;;;;;;;261.10;148.77;;;6.70;99.90;;;;;;5100118;28;20118;-76
2023/02/17 00:35:21;;;;;;;261.30;149.10;;;6.70;99.90;;;;;;5106170;28;20031;-76
2023/02/17 00:37:47;;;;;;;253.18;147.32;;;6.70;99.90;;;;;;5105628;28;20035;-76
2023/02/17 00:40:13;;;;;;;259.67;145.65;;;6.70;99.90;;;;;;5104324;28;20032;-76
2023/02/17 00:42:42;;;;;;;259.23;148.90;;;6.70;99.90;;;;;;5088471;28;20372;-76
2023/02/17 00:45:08;;;;;;;267.92;150.50;;;6.70;99.90;;;;;;5102582;28;20028;-76
2023/02/17 00:47:34;;;;;;;255.13;150.57;;;6.70;99.90;;;;;;5105363;28;20023;-76
2023/02/17 00:49:59;;;;;;;264.45;149.35;;;6.60;99.90;;;;;;5085819;28;20699;-76
2023/02/17 00:52:25;;;;;;;262.67;147.30;;;6.70;99.90;;;;;;5106613;28;20015;-76
2023/02/17 00:54:50;;;;;;;262.25;151.27;;;6.60;99.90;;;;;;5103969;28;20020;-76
2023/02/17 00:57:16;;;;;;;271.02;150.43;;;6.60;99.90;;;;;;5086108;28;20028;-76
2023/02/17 00:59:42;;;;;;;266.05;150.35;;;6.60;99.90;;;;;;5105290;28;20423;-76
2023/02/17 01:02:07;;;;;;;263.20;153.32;;;6.60;99.90;;;;;;5103609;28;20024;-76
2023/02/17 01:04:33;;;;;;;259.30;151.25;;;6.50;99.90;;;;;;5088135;28;20023;-76
2023/02/17 01:06:59;;;;;;;258.80;148.75;;;6.50;99.90;;;;;;5106311;28;20030;-76
2023/02/17 01:09:25;;;;;;;266.70;153.60;;;6.50;99.90;;;;;;5087158;28;20544;-76
2023/02/17 01:11:50;;;;;;;268.25;152.30;;;6.50;99.90;;;;;;5086211;28;20699;-76
2023/02/17 01:14:16;;;;;;;270.67;153.18;;;6.50;99.90;;;;;;5088678;28;20027;-76
2023/02/17 01:16:45;;;;;;;269.92;153.52;;;6.50;99.90;;;;;;5107017;28;20039;-76
2023/02/17 01:19:14;;;;;;;280.13;158.63;;;6.50;99.90;;;;;;5105494;28;20483;-76
2023/02/17 01:21:40;;;;;;;273.67;155.63;;;6.40;99.90;;;;;;5104074;28;20028;-76
2023/02/17 01:24:07;;;;;;;278.17;155.25;;;6.40;99.90;;;;;;5087545;28;20084;-76
2023/02/17 01:26:35;;;;;;;276.85;156.85;;;6.40;99.90;;;;;;5104041;28;20039;-76
2023/02/17 01:29:01;;;;;;;271.38;155.00;;;6.40;99.90;;;;;;5103103;28;20028;-76
2023/02/17 01:31:27;;;;;;;284.00;157.73;;;6.40;99.90;;;;;;5099443;28;20035;-76
2023/02/17 01:33:57;;;;;;;277.33;156.00;;;6.40;99.90;;;;;;5106210;28;20024;-76
2023/02/17 01:36:23;;;;;;;270.17;156.70;;;6.40;99.90;;;;;;5085834;28;20506;-76
2023/02/17 01:38:49;;;;;;;284.17;158.60;;;6.40;99.90;;;;;;5107731;28;20016;-76
2023/02/17 01:41:17;;;;;;;269.27;154.02;;;6.40;99.90;;;;;;5087671;28;20028;-76
2023/02/17 01:44:02;;;;;;;270.08;153.20;;;6.40;99.90;;;;;;5099441;28;20028;-76
2023/02/17 01:46:31;;;;;;;273.02;157.38;;;6.30;99.90;;;;;;5079644;28;20085;-76
2023/02/17 01:48:57;;;;;;;280.33;161.13;;;6.30;99.90;;;;;;5104050;28;20115;-76
2023/02/17 01:51:27;;;;;;;278.33;158.40;;;6.30;99.90;;;;;;5103472;28;20450;-76
2023/02/17 01:53:53;;;;;;;275.45;156.32;;;6.20;99.90;;;;;;5105571;28;20027;-76
2023/02/17 01:56:20;;;;;;;272.23;155.88;;;6.30;99.90;;;;;;5085017;28;20028;-76
2023/02/17 01:58:51;;;;;;;268.08;155.07;;;6.30;99.90;;;;;;5102299;28;20028;-76
2023/02/17 02:01:18;;;;;;;281.38;160.50;;;6.30;99.90;;;;;;5083237;28;20046;-76
2023/02/17 02:03:44;;;;;;;278.70;158.18;;;6.20;99.90;;;;;;5105555;28;20066;-76
2023/02/17 02:06:15;;;;;;;281.42;161.57;;;6.20;99.90;;;;;;5103428;28;20028;-76
2023/02/17 02:08:50;;;;;;;285.13;160.98;;;6.20;99.90;;;;;;5102559;28;20483;-76
2023/02/17 02:11:16;;;;;;;285.67;163.57;;;6.20;99.90;;;;;;5081970;28;20066;-76
2023/02/17 02:13:41;;;;;;;285.98;162.60;;;6.20;99.90;;;;;;5103231;28;20483;-76
2023/02/17 02:16:24;;;;;;;290.30;163.55;;;6.20;99.90;;;;;;5086600;28;20036;-76
2023/02/17 02:18:53;;;;;;;286.17;163.05;;;6.20;99.90;;;;;;5102104;28;20479;-76
2023/02/17 02:21:36;;;;;;;282.58;161.30;;;6.20;99.90;;;;;;5105562;28;20031;-76
2023/02/17 02:24:08;;;;;;;284.45;159.77;;;6.10;99.90;;;;;;5104778;28;20054;-76
2023/02/17 02:26:55;;;;;;;284.77;163.95;;;6.20;99.90;;;;;;5062676;28;20052;-76
2023/02/17 02:30:13;;;;;;;289.98;161.90;;;6.10;99.90;;;;;;5101666;28;20031;-76
2023/02/17 02:32:57;;;;;;;285.10;163.00;;;6.10;99.90;;;;;;5035675;28;20039;-76
2023/02/17 02:35:58;;;;;;;284.23;160.98;;;6.10;99.90;;;;;;5097574;28;20020;-76
2023/02/17 02:38:41;;;;;;;281.77;163.73;;;6.10;99.90;;;;;;5031289;28;20040;-76
2023/02/17 02:41:20;;;;;;;292.90;163.50;;;6.10;99.90;;;;;;5100936;28;20024;-76
2023/02/17 02:43:47;;;;;;;285.13;163.73;;;6.10;99.90;;;;;;5098004;28;20050;-76
2023/02/17 02:46:13;;;;;;;286.20;164.50;;;6.10;99.90;;;;;;5103007;28;20055;-77
2023/02/17 02:48:39;;;;;;;290.30;164.48;;;6.10;99.90;;;;;;5085603;28;20426;-76
2023/02/17 02:51:20;;;;;;;286.88;164.63;;;6.10;99.90;;;;;;5101180;28;20036;-76
2023/02/17 02:54:04;;;;;;;302.73;168.95;;;6.10;99.90;;;;;;5086050;28;20036;-76
2023/02/17 02:56:38;;;;;;;293.67;164.45;;;6.00;99.90;;;;;;5101030;28;20024;-76
2023/02/17 02:59:13;;;;;;;283.50;164.15;;;6.00;99.90;;;;;;5097109;28;20069;-76
2023/02/17 03:01:54;;;;;;;287.25;167.05;;;6.00;99.90;;;;;;5085605;28;20494;-76
2023/02/17 03:04:39;;;;;;;277.02;159.23;;;6.00;99.90;;;;;;5065486;28;20086;-76
2023/02/17 03:07:20;;;;;;;283.10;162.50;;;6.00;99.90;;;;;;5098553;28;20075;-76
2023/02/17 03:09:52;;;;;;;281.75;164.30;;;5.90;99.90;;;;;;5082700;28;20024;-76
2023/02/17 03:12:18;;;;;;;282.25;162.55;;;5.90;99.90;;;;;;5084107;28;20126;-76
2023/02/17 03:14:46;;;;;;;287.33;163.10;;;5.90;99.90;;;;;;5078278;28;20063;-76
2023/02/17 03:17:11;;;;;;;288.33;163.40;;;5.90;99.90;;;;;;5080021;28;20032;-76
2023/02/17 03:19:37;;;;;;;294.60;165.93;;;5.90;99.90;;;;;;5074630;28;20144;-76
2023/02/17 03:22:24;;;;;;;289.38;163.57;;;5.90;99.90;;;;;;5099291;28;20028;-76
2023/02/17 03:24:50;;;;;;;291.67;163.80;;;5.90;99.90;;;;;;5084833;28;20088;-76
2023/02/17 03:27:16;;;;;;;292.17;167.45;;;5.80;99.90;;;;;;5110820;28;20024;-76
2023/02/17 03:29:42;;;;;;;289.08;164.73;;;5.80;99.90;;;;;;5093024;28;20021;-76
2023/02/17 03:32:07;;;;;;;293.40;166.43;;;5.70;99.90;;;;;;5093240;28;20054;-77
2023/02/17 03:34:33;;;;;;;283.30;157.00;;;5.80;99.90;;;;;;5093259;28;20070;-76
2023/02/17 03:36:59;;;;;;;287.63;158.93;;;5.80;99.90;;;;;;5092938;28;20383;-76
2023/02/17 03:39:26;;;;;;;285.13;159.63;;;5.80;99.90;;;;;;5074829;28;20412;-76
2023/02/17 03:41:52;;;;;;;282.58;157.18;;;5.80;99.90;;;;;;5074912;28;20032;-76
2023/02/17 03:44:18;;;;;;;290.33;162.88;;;5.80;99.90;;;;;;5099335;28;20368;-76
2023/02/17 03:46:44;;;;;;;279.30;159.57;;;5.70;99.90;;;;;;5083457;28;20387;-76
2023/02/17 03:49:10;;;;;;;288.85;158.10;;;5.70;99.90;;;;;;5101278;28;20388;-76
2023/02/17 03:51:36;;;;;;;283.55;158.80;;;5.70;99.90;;;;;;5102986;28;20032;-76
2023/02/17 03:54:02;;;;;;;288.98;161.05;;;5.70;99.90;;;;;;5100014;28;20024;-76
2023/02/17 03:56:27;;;;;;;274.27;156.15;;;5.70;99.90;;;;;;5101568;28;20024;-76
2023/02/17 03:58:53;;;;;;;279.65;158.77;;;5.70;99.90;;;;;;5082721;28;20015;-76
2023/02/17 04:01:22;;;;;;;283.58;158.27;;;5.70;99.90;;;;;;5082788;28;20030;-76
2023/02/17 04:03:48;;;;;;;282.70;158.70;;;5.70;99.90;;;;;;5096197;28;20549;-76
2023/02/17 04:06:14;;;;;;;282.70;161.10;;;5.70;99.90;;;;;;5101822;28;20020;-76
2023/02/17 04:08:40;;;;;;;277.23;158.43;;;5.70;99.90;;;;;;5103290;28;20371;-76
2023/02/17 04:11:07;;;;;;;282.80;158.25;;;5.70;99.90;;;;;;5084593;28;20574;-76
2023/02/17 04:13:33;;;;;;;291.25;162.13;;;5.70;99.90;;;;;;5102965;28;20026;-76
2023/02/17 04:16:05;;;;;;;288.77;159.20;;;5.70;99.90;;;;;;5082639;28;20491;-76
2023/02/17 04:18:31;;;;;;;;;;;5.70;99.90;;;;;;5100947;28;20020;-76
2023/02/17 04:20:57;;;;;;;269.00;158.30;;;5.60;99.90;;;;;;5103212;28;20270;-76
2023/02/17 04:23:23;;;;;;;277.05;158.05;;;5.60;99.90;;;;;;5100373;28;20024;-76
2023/02/17 04:25:48;;;;;;;281.10;156.55;;;5.50;99.90;;;;;;5083289;28;20023;-76
2023/02/17 04:28:15;;;;;;;280.23;155.18;;;5.50;99.90;;;;;;5099202;28;20077;-76
2023/02/17 04:30:46;;;;;;;278.42;156.73;;;5.50;99.90;;;;;;5081274;28;20019;-76
2023/02/17 04:33:12;;;;;;;278.45;157.00;;;5.50;99.90;;;;;;5084023;28;20475;-76
2023/02/17 04:35:38;;;;;;;277.48;155.73;;;5.50;99.90;;;;;;5083303;28;20024;-76
2023/02/17 04:38:05;;;;;;;280.88;155.38;;;5.50;99.90;;;;;;5100363;28;20077;-76
2023/02/17 04:40:31;;;;;;;284.08;162.75;;;5.50;99.90;;;;;;5102870;28;20468;-76
2023/02/17 04:42:57;;;;;;;276.40;156.68;;;5.50;99.90;;;;;;5101770;28;20019;-76
2023/02/17 04:45:22;;;;;;;274.85;155.52;;;5.50;99.90;;;;;;5084801;28;20020;-76
2023/02/17 04:47:48;;;;;;;279.25;157.18;;;5.50;99.90;;;;;;5083783;28;20031;-76
2023/02/17 04:50:14;;;;;;;275.35;157.18;;;5.50;99.90;;;;;;5103553;28;20032;-76
2023/02/17 04:52:40;;;;;;;281.20;158.45;;;5.50;99.90;;;;;;5081603;28;20383;-76
2023/02/17 04:55:06;;;;;;;289.00;155.85;;;5.50;99.90;;;;;;5101564;28;20035;-76
2023/02/17 04:57:32;;;;;;;290.27;158.00;;;5.50;99.90;;;;;;5080852;28;20028;-76
2023/02/17 04:59:58;;;;;;;274.77;157.35;;;5.50;99.90;;;;;;5102748;28;20034;-76
2023/02/17 05:02:27;;;;;;;281.00;154.95;;;5.50;99.90;;;;;;5106110;28;20028;-76
2023/02/17 05:04:53;;;;;;;280.70;157.88;;;5.50;99.90;;;;;;5104326;28;20471;-76
2023/02/17 05:07:19;;;;;;;276.92;159.30;;;5.60;99.90;;;;;;5107244;28;20077;-76
2023/02/17 05:09:45;;;;;;;279.38;158.77;;;5.50;99.90;;;;;;5103554;28;20032;-76
2023/02/17 05:12:10;;;;;;;278.98;156.07;;;5.50;99.90;;;;;;5106017;28;20046;-76
2023/02/17 05:14:36;;;;;;;271.10;158.35;;;5.50;99.90;;;;;;5103767;28;20040;-76
2023/02/17 05:17:02;;;;;;;275.80;157.20;;;5.50;99.90;;;;;;5086465;28;20065;-76
2023/02/17 05:19:27;;;;;;;274.88;156.32;;;5.50;99.90;;;;;;5102335;28;20061;-76
2023/02/17 05:21:53;;;;;;;274.77;156.55;;;5.50;99.90;;;;;;5106117;28;20411;-76
2023/02/17 05:24:19;;;;;;;267.13;152.07;;;5.50;99.90;;;;;;5084702;28;20407;-76
2023/02/17 05:26:45;;;;;;;273.98;155.98;;;5.40;99.90;;;;;;5104809;28;20030;-76
2023/02/17 05:29:10;;;;;;;279.73;156.80;;;5.40;99.90;;;;;;5083731;28;20499;-76
2023/02/17 05:31:36;;;;;;;272.90;152.18;;;5.40;99.90;;;;;;5106010;28;20019;-76
2023/02/17 05:34:02;;;;;;;281.27;158.70;;;5.40;99.90;;;;;;5105902;28;20023;-76
2023/02/17 05:36:28;;;;;;;274.88;155.18;;;5.40;99.90;;;;;;5084787;28;20533;-76
2023/02/17 05:38:54;;;;;;;270.88;154.20;;;5.40;99.90;;;;;;5086018;28;20022;-77
2023/02/17 05:41:19;;;;;;;280.25;158.13;;;5.40;99.90;;;;;;5105007;28;20430;-76
2023/02/17 05:43:46;;;;;;;268.02;150.60;;;5.40;99.90;;;;;;5085414;28;20016;-76
2023/02/17 05:46:13;;;;;;;276.48;157.27;;;5.50;99.90;;;;;;5099854;28;20024;-76
2023/02/17 05:48:38;;;;;;;279.25;153.85;;;5.40;99.90;;;;;;5109861;28;20020;-77
2023/02/17 05:51:04;;;;;;;274.52;157.52;;;5.40;99.90;;;;;;5095288;28;20030;-77
2023/02/17 05:53:30;;;;;;;269.15;153.10;;;5.40;99.90;;;;;;5093363;28;20024;-77
2023/02/17 05:55:56;;;;;;;267.13;148.73;;;5.40;99.90;;;;;;5095018;28;20115;-76
2023/02/17 05:58:22;;;;;;;281.50;156.35;;;5.40;99.90;;;;;;5094869;28;20023;-76
2023/02/17 06:00:47;;;;;;;278.17;153.82;;;5.40;99.90;;;;;;5094963;28;20020;-77
2023/02/17 06:03:13;;;;;;;260.42;152.02;;;5.40;99.90;;;;;;5076945;28;20024;-76
2023/02/17 06:05:39;;;;;;;277.92;152.40;;;5.40;99.90;;;;;;5094660;28;20093;-76
2023/02/17 06:08:05;;;;;;;266.70;149.98;;;5.40;99.90;;;;;;5077385;28;20484;-76
2023/02/17 06:10:31;;;;;;;259.98;149.55;;;5.40;99.90;;;;;;5104912;28;20608;-76
2023/02/17 06:12:57;;;;;;;266.65;148.25;;;5.40;99.90;;;;;;5094248;28;20055;-76
2023/02/17 06:15:23;;;;;;;265.45;148.55;;;5.40;99.90;;;;;;5076140;28;20031;-77
2023/02/17 06:17:48;;;;;;;263.73;152.23;;;5.40;99.90;;;;;;5100138;28;20024;-79
2023/02/17 06:20:14;;;;;;;265.88;151.38;;;5.40;99.90;;;;;;5081592;28;20028;-79
2023/02/17 06:22:43;;;;;;;261.58;151.60;;;5.40;99.90;;;;;;5095431;28;20020;-78
2023/02/17 06:25:09;;;;;;;256.65;145.35;;;5.40;99.90;;;;;;5103643;28;20028;-79
2023/02/17 06:27:38;;;;;;;261.75;147.57;;;5.40;99.90;;;;;;5080021;28;20039;-79
2023/02/17 06:30:04;;;;;;;266.83;151.32;;;5.40;99.90;;;;;;5093384;28;20016;-79
2023/02/17 06:32:30;;;;;;;262.27;148.63;;;5.40;99.90;;;;;;5104193;28;20030;-79
2023/02/17 06:34:56;;;;;;;267.80;150.18;;;5.30;99.90;;;;;;5101333;28;20206;-79
2023/02/17 06:37:21;;;;;;;266.58;152.23;;;5.30;99.90;;;;;;5109167;28;20582;-79
2023/02/17 06:39:47;;;;;;;267.95;150.35;;;5.40;99.90;;;;;;5105640;28;20517;-76
2023/02/17 06:42:13;;;;;;;261.63;150.48;;;5.40;99.90;;;;;;5083224;28;20027;-76
2023/02/17 06:44:38;;;;;;;262.88;144.93;;;5.40;99.90;;;;;;5103403;28;20104;-76
2023/02/17 06:47:04;;;;;;;263.75;150.13;;;5.40;99.90;;;;;;5104022;28;20020;-76
2023/02/17 06:49:29;;;;;;;256.13;146.55;;;5.40;99.90;;;;;;5094531;28;20642;-76
2023/02/17 06:51:55;;;;;;;265.38;148.52;;;5.40;99.90;;;;;;5101660;28;20103;-76
2023/02/17 06:54:21;;;;;;;253.77;149.60;;;5.40;99.90;;;;;;5102093;28;20020;-77
2023/02/17 06:56:46;;;;;;;255.02;145.85;;;5.40;99.90;;;;;;5103760;28;20027;-79
2023/02/17 06:59:12;;;;;;;252.90;147.02;;;5.40;99.90;;;;;;5100958;28;20024;-78
2023/02/17 07:01:38;;;;;;;265.25;149.35;;;5.40;99.90;;;;;;5101202;28;20076;-79
2023/02/17 07:04:03;;;;;;;256.23;146.30;;;5.40;99.90;;;;;;5095700;28;20395;-78
2023/02/17 07:06:29;;;;;;;262.10;148.98;;;5.40;99.90;;;;;;5093145;28;20479;-79
2023/02/17 07:08:55;;;;;;;271.27;146.85;;;5.50;99.90;;;;;;5093850;28;20365;-79
2023/02/17 07:11:20;;;;;;;258.15;143.73;;;5.50;99.90;;;;;;5101977;28;20498;-79
2023/02/17 07:13:49;;;;;;;244.63;139.57;;;5.50;99.90;;;;;;5109889;28;20020;-79
2023/02/17 07:16:16;;;;;;;261.55;143.02;;;5.60;99.90;;;;;;5085661;28;20105;-79
2023/02/17 07:18:42;;;;;;;256.88;144.20;;;5.60;99.90;;;;;;5087100;28;20023;-79
2023/02/17 07:21:08;;;;;;;252.50;143.05;;;5.60;99.90;;;;;;5101156;28;20109;-79
2023/02/17 07:23:35;;;;;;;250.73;142.93;;;5.60;99.90;;;;;;5079188;28;20031;-79
2023/02/17 07:26:02;;;;;;;254.18;138.70;;;5.60;99.90;;;;;;5089647;28;20051;-79
2023/02/17 07:28:27;;;;;;;248.43;140.73;;;5.60;99.90;;;;;;5095592;28;20434;-79
2023/02/17 07:30:53;;;;;;;259.27;140.63;;;5.70;99.90;;;;;;5097923;28;20020;-79
2023/02/17 07:33:19;;;;;;;248.85;145.43;;;5.70;99.90;;;;;;5109541;28;20103;-79
2023/02/17 07:35:44;;;;;;;245.95;142.48;;;5.70;99.90;;;;;;5093003;28;20073;-79
2023/02/17 07:38:11;;;;;;;264.30;148.00;;;5.70;99.90;;;;;;5078629;28;20589;-79
2023/02/17 07:40:37;;;;;;;251.10;140.43;;;5.80;99.90;;;;;;5078432;28;20031;-79
2023/02/17 07:43:02;;;;;;;253.55;143.98;;;5.80;99.90;;;;;;5096791;28;20024;-79
2023/02/17 07:45:28;;;;;;;247.88;144.32;;;5.90;99.90;;;;;;5074672;28;20035;-79
2023/02/17 07:47:54;;;;;;;254.88;148.05;;;5.90;99.90;;;;;;5095322;28;20471;-79
2023/02/17 07:50:20;;;;;;;257.02;148.10;;;6.00;99.90;;;;;;5101306;28;20021;-80
2023/02/17 07:52:45;;;;;;;259.45;145.38;;;6.00;99.90;;;;;;5100241;28;20031;-79
2023/02/17 07:55:11;;;;;;;265.33;152.55;;;6.10;99.90;;;;;;5119032;27;20032;-79
2023/02/17 07:57:37;;;;;;;261.23;150.85;;;6.10;99.90;;;;;;5098344;28;20027;-80
2023/02/17 08:00:04;;;;;;;255.27;146.48;;;6.20;99.90;;;;;;5074405;28;20422;-80
2023/02/17 08:02:30;;;;;;;262.25;147.23;;;6.20;99.90;;;;;;5074753;28;20089;-79
2023/02/17 08:04:56;;;;;;;260.33;147.68;;;6.30;99.90;;;;;;5092887;28;20473;-80
2023/02/17 08:07:21;;;;;;;256.77;144.02;;;6.30;99.90;;;;;;5092576;28;20472;-79
2023/02/17 08:15:15;;;;;;;256.17;149.68;;;6.50;99.90;;;;;;5072526;28;20404;-79
2023/02/17 08:17:41;;;;;;;261.05;148.38;;;6.60;99.90;;;;;;5054445;28;20029;-79
2023/02/17 08:20:07;;;;;;;260.23;145.35;;;6.60;99.90;;;;;;5054632;28;20028;-80
2023/02/17 08:22:33;;;;;;;267.15;152.20;;;6.70;99.90;;;;;;5072615;28;20034;-80
2023/02/17 08:24:59;;;;;;;262.90;148.88;;;6.70;99.90;;;;;;5098550;28;20032;-79
2023/02/17 08:27:25;;;;;;;264.48;152.85;;;6.80;99.90;;;;;;5106689;28;20111;-79
2023/02/17 08:29:50;;;;;;;274.10;158.13;;;6.80;99.90;;;;;;5095410;28;20077;-79
2023/02/17 08:32:17;;;;;;;280.40;160.32;;;6.90;99.90;;;;;;5099863;28;20017;-76
2023/02/17 08:34:46;;;;;;;283.88;163.65;;;6.90;99.90;;;;;;5095811;28;20085;-76
2023/02/17 08:37:11;;;;;;;319.67;173.80;;;6.90;99.90;;;;;;5091756;28;20024;-76
2023/02/17 08:39:37;;;;;;;300.33;175.18;;;7.00;99.90;;;;;;5105361;28;20027;-76
2023/02/17 08:42:04;;;;;;;322.85;181.30;;;7.00;99.90;;;;;;5095486;28;20025;-77
2023/02/17 08:44:29;;;;;;;313.90;180.02;;;7.10;99.90;;;;;;5097167;28;20024;-76
2023/02/17 08:46:55;;;;;;;314.20;179.90;;;7.20;99.90;;;;;;5099087;28;20061;-76
2023/02/17 08:49:24;;;;;;;294.35;173.07;;;7.20;99.90;;;;;;5099890;28;20012;-76
2023/02/17 08:51:50;;;;;;;313.13;179.57;;;7.20;99.90;;;;;;5096426;28;20020;-76
2023/02/17 08:54:16;;;;;;;309.13;178.25;;;7.30;99.90;;;;;;5112800;28;20026;-76
2023/02/17 08:56:42;;;;;;;323.27;183.82;;;7.30;99.90;;;;;;5106676;28;20213;-76
2023/02/17 08:59:09;;;;;;;341.60;191.77;;;7.40;99.90;;;;;;5095853;28;20116;-77
2023/02/17 09:01:36;;;;;;;332.17;188.77;;;7.50;99.90;;;;;;5111678;28;20014;-76
2023/02/17 09:04:04;;;;;;;333.20;188.00;;;7.50;99.90;;;;;;5112230;28;20016;-77
2023/02/17 09:06:50;;;;;;;336.15;189.75;;;7.60;99.90;;;;;;5097931;28;20483;-76
2023/02/17 09:09:21;;;;;;;356.80;195.88;;;7.60;99.90;;;;;;5069175;28;20023;-76
2023/02/17 09:11:48;;;;;;;329.83;186.02;;;7.60;99.90;;;;;;5098128;28;20048;-76
2023/02/17 09:14:14;;;;;;;339.35;190.77;;;7.70;99.90;;;;;;5097806;28;20554;-76
2023/02/17 09:16:40;;;;;;;359.67;197.25;;;7.70;99.90;;;;;;5098029;28;20038;-76
2023/02/17 09:19:05;;;;;;;353.05;199.07;;;7.70;99.90;;;;;;5080991;28;20409;-76
2023/02/17 09:21:31;;;;;;;343.23;195.57;;;7.80;99.90;;;;;;5132115;27;20038;-76
2023/02/17 09:23:57;;;;;;;348.73;196.85;;;7.80;99.90;;;;;;5093447;28;20043;-76
2023/02/17 09:26:23;;;;;;;357.60;198.18;;;7.90;99.90;;;;;;5096321;28;20028;-76
2023/02/17 09:28:49;;;;;;;350.63;199.73;;;7.90;99.90;;;;;;5115775;27;20115;-76
2023/02/17 09:31:23;;;;;;;360.50;205.60;;;8.00;99.90;;;;;;5097362;28;20024;-76
2023/02/17 09:33:50;;;;;;;362.63;203.32;;;8.10;99.90;;;;;;5095383;28;20419;-77
2023/02/17 09:36:21;;;;;;;360.45;203.20;;;8.10;99.90;;;;;;5100966;28;20027;-76
2023/02/17 09:38:48;;;;;;;365.63;205.23;;;8.10;99.90;;;;;;5108323;28;20020;-76
2023/02/17 09:41:15;;;;;;;350.42;198.80;;;8.10;99.90;;;;;;5103817;28;20391;-76
2023/02/17 09:43:41;;;;;;;351.35;202.55;;;8.20;99.90;;;;;;5101578;28;20390;-76
2023/02/17 09:46:23;;;;;;;342.08;197.55;;;8.30;99.90;;;;;;5083383;28;20027;-76
2023/02/17 09:48:51;;;;;;;359.67;199.50;;;8.30;99.90;;;;;;5107798;28;20092;-77
2023/02/17 09:51:34;;;;;;;349.08;196.15;;;8.30;99.90;;;;;;5087499;28;20078;-77
2023/02/17 09:54:22;;;;;;;330.48;189.05;;;8.30;99.90;;;;;;5056843;28;20384;-77
2023/02/17 09:56:50;;;;;;;335.85;190.45;;;8.40;99.90;;;;;;5071536;28;20066;-79
2023/02/17 09:59:38;;;;;;;327.67;188.88;;;8.40;99.90;;;;;;5102082;28;20039;-79
2023/02/17 10:02:39;;;;;;;316.55;186.10;;;8.50;99.90;;;;;;5102606;28;20024;-79
2023/02/17 10:05:10;;;;;;;334.55;191.88;;;8.60;99.90;;;;;;5096645;28;20433;-79
2023/02/17 10:07:42;;;;;;;316.02;182.38;;;8.70;99.90;;;;;;5102574;28;20032;-80
2023/02/17 10:10:19;;;;;;;320.85;183.23;;;8.70;99.90;;;;;;5093555;28;20490;-79
2023/02/17 10:12:50;;;;;;;318.83;185.40;;;8.80;99.90;;;;;;5062750;28;20118;-79
2023/02/17 10:15:29;;;;;;;320.40;185.00;;;8.80;99.90;;;;;;5057649;28;20483;-79
2023/02/17 10:18:09;;;;;;;339.30;187.10;;;8.90;99.90;;;;;;5061710;28;20021;-79
2023/02/17 10:20:41;;;;;;;333.05;191.10;;;9.00;99.90;;;;;;5061580;28;20492;-79
2023/02/17 10:23:18;;;;;;;345.58;193.75;;;9.10;99.90;;;;;;5061668;28;20029;-79
2023/02/17 10:26:15;;;;;;;323.95;188.20;;;9.20;99.90;;;;;;5062271;28;20052;-79
2023/02/17 10:29:12;;;;;;;314.50;184.10;;;9.30;99.90;;;;;;5072781;28;20036;-79
2023/02/17 10:32:02;;;;;;;300.40;178.02;;;9.40;99.90;;;;;;5059851;28;20028;-79
2023/02/17 10:35:00;;;;;;;307.83;180.27;;;9.40;99.90;;;;;;5057589;28;20029;-79
2023/02/17 10:37:35;;;;;;;303.92;175.77;;;9.40;99.90;;;;;;5060766;28;20035;-79
2023/02/17 10:40:02;;;;;;;298.08;173.48;;;9.50;99.90;;;;;;5059221;28;20029;-79
2023/02/17 10:42:33;;;;;;;299.00;173.63;;;9.50;99.90;;;;;;5065084;28;20559;-79
2023/02/17 10:45:14;;;;;;;300.65;173.23;;;9.60;99.90;;;;;;5060771;28;20025;-79
2023/02/17 10:47:40;;;;;;;301.88;170.95;;;9.60;99.90;;;;;;5061115;28;20021;-80
2023/02/17 10:50:21;;;;;;;293.58;171.27;;;9.70;99.90;;;;;;5064362;28;20039;-79
2023/02/17 10:52:47;;;;;;;299.70;175.20;;;9.80;99.90;;;;;;5063533;28;20023;-79
2023/02/17 10:55:37;;;;;;;285.95;164.40;;;9.90;99.90;;;;;;5058571;28;20021;-79
2023/02/17 10:58:12;;;;;;;274.25;163.90;;;10.10;99.90;;;;;;5056494;28;20033;-79
2023/02/17 11:00:37;;;;;;;279.83;157.02;;;10.00;99.90;;;;;;5062457;28;20043;-79
2023/02/17 11:03:03;;;;;;;264.15;154.00;;;10.10;99.90;;;;;;5059840;28;20396;-79
2023/02/17 11:05:33;;;;;;;260.30;151.50;;;10.20;99.90;;;;;;5060460;28;20082;-79
2023/02/17 11:08:26;;;;;;;258.02;149.30;;;10.40;99.90;;;;;;5061382;28;20031;-79
2023/02/17 11:11:13;;;;;;;247.32;140.25;;;10.50;99.90;;;;;;5072014;28;20529;-79
2023/02/17 11:13:43;;;;;;;241.48;131.50;;;10.50;99.90;;;;;;5064450;28;20020;-79
2023/02/17 11:16:25;;;;;;;221.27;131.23;;;10.50;99.90;;;;;;5104181;28;20484;-78
2023/02/17 11:18:51;;;;;;;212.07;129.00;;;10.50;99.90;;;;;;5085874;28;20032;-79
2023/02/17 11:21:17;;;;;;;173.18;105.95;;;10.70;99.90;;;;;;5104141;28;20435;-79
2023/02/17 11:23:55;;;;;;;172.02;100.05;;;10.80;99.90;;;;;;5101361;28;20054;-79
2023/02/17 11:26:24;;;;;;;165.55;94.95;;;10.90;99.90;;;;;;5082568;28;20028;-79
2023/02/17 11:28:50;;;;;;;171.02;100.25;;;10.90;99.90;;;;;;5097955;28;20469;-79
2023/02/17 11:31:28;;;;;;;174.43;97.78;;;10.90;99.90;;;;;;5102119;28;20020;-79
2023/02/17 11:33:54;;;;;;;176.30;100.40;;;11.00;99.90;;;;;;5100680;28;20077;-79
2023/02/17 11:36:28;;;;;;;179.27;100.55;;;11.10;99.90;;;;;;5102717;28;20220;-78
2023/02/17 11:38:54;;;;;;;176.63;101.85;;;11.10;99.90;;;;;;5099821;28;20073;-78
2023/02/17 11:41:20;;;;;;;178.68;103.72;;;11.00;99.90;;;;;;5103745;28;20046;-78
2023/02/17 11:43:58;;;;;;;186.18;104.38;;;11.10;99.90;;;;;;5102437;28;20058;-78
2023/02/17 11:46:45;;;;;;;183.55;101.93;;;11.10;99.90;;;;;;5105469;28;20028;-78
2023/02/17 11:49:16;;;;;;;175.57;106.10;;;11.10;99.90;;;;;;5083312;28;20024;-79
2023/02/17 11:51:45;;;;;;;175.07;103.75;;;11.20;99.90;;;;;;5103669;28;20027;-78
2023/02/17 11:54:46;;;;;;;171.88;99.72;;;11.30;99.90;;;;;;5085622;28;20031;-78
2023/02/17 11:57:38;;;;;;;172.05;100.53;;;11.30;99.90;;;;;;5098110;28;20031;-78
2023/02/17 12:00:13;;;;;;;157.85;96.13;;;11.30;99.90;;;;;;5087814;28;20036;-78
2023/02/17 12:02:48;;;;;;;170.55;97.78;;;11.40;99.90;;;;;;5083483;28;20074;-78
2023/02/17 12:05:32;;;;;;;171.73;93.35;;;11.40;99.90;;;;;;5101871;28;20496;-78
2023/02/17 12:08:10;;;;;;;156.85;91.88;;;11.50;99.90;;;;;;5101016;28;20115;-78
2023/02/17 12:10:35;;;;;;;163.07;94.35;;;11.60;99.90;;;;;;5111695;28;20395;-78
2023/02/17 12:13:30;;;;;;;163.05;93.32;;;11.60;99.90;;;;;;5107223;28;20024;-78
2023/02/17 12:15:56;;;;;;;163.73;94.43;;;11.80;99.90;;;;;;5106479;28;20024;-78
2023/02/17 12:18:42;;;;;;;163.02;91.93;;;11.70;99.90;;;;;;5108886;28;20034;-79
2023/02/17 12:21:23;;;;;;;143.23;85.35;;;11.70;99.90;;;;;;5107252;28;20131;-78
2023/02/17 12:24:06;;;;;;;150.40;83.10;;;11.80;99.90;;;;;;5088335;28;20120;-78
2023/02/17 12:26:43;;;;;;;120.10;73.15;;;11.80;99.90;;;;;;5102948;28;20110;-78
2023/02/17 12:29:27;;;;;;;119.68;72.97;;;11.90;99.90;;;;;;5109887;28;20486;-78
2023/02/17 12:32:08;;;;;;;112.00;66.53;;;11.80;99.90;;;;;;5089404;28;20028;-78
2023/02/17 12:35:11;;;;;;;107.75;65.80;;;11.90;99.90;;;;;;5071401;28;20418;-77
2023/02/17 12:37:54;;;;;;;102.93;63.15;;;11.90;99.90;;;;;;5103627;28;20569;-78